sensor_id;sensor_type;location;lat;lon;timestamp;temperature;humidity
7472;DHT22;3777;48.722;8.110;2023-05-14T00:02:15;13.30;99.90
7472;DHT22;3777;48.722;8.110;2023-05-14T00:04:42;13.30;99.90
7472;DHT22;3777;48.722;8.110;2023-05-14T00:07:09;13.20;99.90
7472;DHT22;3777;48.722;8.110;2023-05-14T00:09:36;13.20;99.90
7472;DHT22;3777;48.722;8.110;2023-05-14T00:12:03;13.10;99.90
7472;DHT22;3777;48.722;8.110;2023-05-14T00:14:30;13.10;99.90
7472;DHT22;3777;48.722;8.110;2023-05-14T00:16:59;13.10;99.90
7472;DHT22;3777;48.722;8.110;2023-05-14T00:19:26;13.00;99.90
7472;DHT22;3777;48.722;8.110;2023-05-14T00:21:53;12.90;99.90
7472;DHT22;3777;48.722;8.110;2023-05-14T00:24:20;12.90;99.90
7472;DHT22;3777;48.722;8.110;2023-05-14T00:26:47;12.90;99.90
7472;DHT22;3777;48.722;8.110;2023-05-14T00:29:14;12.80;99.90
7472;DHT22;3777;48.722;8.110;2023-05-14T00:31:41;12.80;99.90
7472;DHT22;3777;48.722;8.110;2023-05-14T00:34:09;12.70;99.90
7472;DHT22;3777;48.722;8.110;2023-05-14T00:36:36;12.70;99.90
7472;DHT22;3777;48.722;8.110;2023-05-14T00:39:03;12.70;99.90
7472;DHT22;3777;48.722;8.110;2023-05-14T00:41:30;12.60;99.90
7472;DHT22;3777;48.722;8.110;2023-05-14T00:43:57;12.60;99.90
7472;DHT22;3777;48.722;8.110;2023-05-14T00:46:24;12.60;99.90
7472;DHT22;3777;48.722;8.110;2023-05-14T00:48:51;12.50;99.90
7472;DHT22;3777;48.722;8.110;2023-05-14T00:51:20;12.50;99.90
7472;DHT22;3777;48.722;8.110;2023-05-14T00:53:47;12.50;99.90
7472;DHT22;3777;48.722;8.110;2023-05-14T00:56:15;12.40;99.90
7472;DHT22;3777;48.722;8.110;2023-05-14T00:58:42;12.40;99.90
7472;DHT22;3777;48.722;8.110;2023-05-14T01:01:09;12.40;99.90
7472;DHT22;3777;48.722;8.110;2023-05-14T01:03:39;12.40;99.90
7472;DHT22;3777;48.722;8.110;2023-05-14T01:06:11;12.40;99.90
7472;DHT22;3777;48.722;8.110;2023-05-14T01:08:48;12.40;99.90
7472;DHT22;3777;48.722;8.110;2023-05-14T01:11:18;12.40;99.90
7472;DHT22;3777;48.722;8.110;2023-05-14T01:13:56;12.40;99.90
7472;DHT22;3777;48.722;8.110;2023-05-14T01:16:26;12.30;99.90
7472;DHT22;3777;48.722;8.110;2023-05-14T01:18:54;12.30;99.90
7472;DHT22;3777;48.722;8.110;2023-05-14T01:21:35;12.30;99.90
7472;DHT22;3777;48.722;8.110;2023-05-14T01:24:03;12.30;99.90
7472;DHT22;3777;48.722;8.110;2023-05-14T01:26:30;12.30;99.90
7472;DHT22;3777;48.722;8.110;2023-05-14T01:29:12;12.30;99.90
7472;DHT22;3777;48.722;8.110;2023-05-14T01:31:43;12.30;99.90
7472;DHT22;3777;48.722;8.110;2023-05-14T01:34:12;12.20;99.90
7472;DHT22;3777;48.722;8.110;2023-05-14T01:36:41;12.20;99.90
7472;DHT22;3777;48.722;8.110;2023-05-14T01:39:09;12.10;99.90
7472;DHT22;3777;48.722;8.110;2023-05-14T01:41:37;12.10;99.90
7472;DHT22;3777;48.722;8.110;2023-05-14T01:44:05;12.10;99.90
7472;DHT22;3777;48.722;8.110;2023-05-14T01:46:32;12.00;99.90
7472;DHT22;3777;48.722;8.110;2023-05-14T01:48:59;12.00;99.90
7472;DHT22;3777;48.722;8.110;2023-05-14T01:51:26;11.90;99.90
7472;DHT22;3777;48.722;8.110;2023-05-14T01:53:54;11.90;99.90
7472;DHT22;3777;48.722;8.110;2023-05-14T01:56:22;11.80;99.90
7472;DHT22;3777;48.722;8.110;2023-05-14T01:58:50;11.80;99.90
7472;DHT22;3777;48.722;8.110;2023-05-14T02:01:17;11.80;99.90
7472;DHT22;3777;48.722;8.110;2023-05-14T02:03:44;11.80;99.90
7472;DHT22;3777;48.722;8.110;2023-05-14T02:06:11;11.70;99.90
7472;DHT22;3777;48.722;8.110;2023-05-14T02:08:38;11.70;99.90
7472;DHT22;3777;48.722;8.110;2023-05-14T02:11:06;11.70;99.90
7472;DHT22;3777;48.722;8.110;2023-05-14T02:13:33;11.70;99.90
7472;DHT22;3777;48.722;8.110;2023-05-14T02:16:00;11.70;99.90
7472;DHT22;3777;48.722;8.110;2023-05-14T02:18:27;11.70;99.90
7472;DHT22;3777;48.722;8.110;2023-05-14T02:20:54;11.70;99.90
7472;DHT22;3777;48.722;8.110;2023-05-14T02:23:22;11.70;99.90
7472;DHT22;3777;48.722;8.110;2023-05-14T02:25:48;11.70;99.90
7472;DHT22;3777;48.722;8.110;2023-05-14T02:28:17;11.60;99.90
7472;DHT22;3777;48.722;8.110;2023-05-14T02:30:44;11.60;99.90
7472;DHT22;3777;48.722;8.110;2023-05-14T02:33:11;11.50;99.90
7472;DHT22;3777;48.722;8.110;2023-05-14T02:35:38;11.50;99.90
7472;DHT22;3777;48.722;8.110;2023-05-14T02:38:05;11.50;99.90
7472;DHT22;3777;48.722;8.110;2023-05-14T02:40:32;11.50;99.90
7472;DHT22;3777;48.722;8.110;2023-05-14T02:42:59;11.50;99.90
7472;DHT22;3777;48.722;8.110;2023-05-14T02:45:27;11.50;99.90
7472;DHT22;3777;48.722;8.110;2023-05-14T02:47:54;11.60;99.90
7472;DHT22;3777;48.722;8.110;2023-05-14T02:50:21;11.60;99.90
7472;DHT22;3777;48.722;8.110;2023-05-14T02:52:48;11.60;99.90
7472;DHT22;3777;48.722;8.110;2023-05-14T02:55:15;11.60;99.90
7472;DHT22;3777;48.722;8.110;2023-05-14T02:58:13;11.60;99.90
7472;DHT22;3777;48.722;8.110;2023-05-14T03:00:42;11.70;99.90
7472;DHT22;3777;48.722;8.110;2023-05-14T03:03:09;11.70;99.90
7472;DHT22;3777;48.722;8.110;2023-05-14T03:05:36;11.80;99.90
7472;DHT22;3777;48.722;8.110;2023-05-14T03:08:03;11.80;99.90
7472;DHT22;3777;48.722;8.110;2023-05-14T03:10:31;11.90;99.90
7472;DHT22;3777;48.722;8.110;2023-05-14T03:12:58;11.90;99.90
7472;DHT22;3777;48.722;8.110;2023-05-14T03:15:25;12.00;99.90
7472;DHT22;3777;48.722;8.110;2023-05-14T03:17:53;12.10;99.90
7472;DHT22;3777;48.722;8.110;2023-05-14T03:20:22;12.10;99.90
7472;DHT22;3777;48.722;8.110;2023-05-14T03:22:50;12.20;99.90
7472;DHT22;3777;48.722;8.110;2023-05-14T03:25:17;12.30;99.90
7472;DHT22;3777;48.722;8.110;2023-05-14T03:27:44;12.30;99.90
7472;DHT22;3777;48.722;8.110;2023-05-14T03:30:11;12.30;99.90
7472;DHT22;3777;48.722;8.110;2023-05-14T03:32:39;12.40;99.90
7472;DHT22;3777;48.722;8.110;2023-05-14T03:35:10;12.40;99.90
7472;DHT22;3777;48.722;8.110;2023-05-14T03:37:37;12.40;99.90
7472;DHT22;3777;48.722;8.110;2023-05-14T03:40:05;12.40;99.90
7472;DHT22;3777;48.722;8.110;2023-05-14T03:42:32;12.40;99.90
7472;DHT22;3777;48.722;8.110;2023-05-14T03:44:59;12.40;99.90
7472;DHT22;3777;48.722;8.110;2023-05-14T03:47:26;12.40;99.90
7472;DHT22;3777;48.722;8.110;2023-05-14T03:49:53;12.40;99.90
7472;DHT22;3777;48.722;8.110;2023-05-14T03:52:21;12.50;99.90
7472;DHT22;3777;48.722;8.110;2023-05-14T03:54:48;12.50;99.90
7472;DHT22;3777;48.722;8.110;2023-05-14T03:57:15;12.50;99.90
7472;DHT22;3777;48.722;8.110;2023-05-14T03:59:42;12.50;99.90
7472;DHT22;3777;48.722;8.110;2023-05-14T04:02:09;12.50;99.90
7472;DHT22;3777;48.722;8.110;2023-05-14T04:04:36;12.50;99.90
7472;DHT22;3777;48.722;8.110;2023-05-14T04:07:03;12.50;99.90
7472;DHT22;3777;48.722;8.110;2023-05-14T04:09:32;12.60;99.90
7472;DHT22;3777;48.722;8.110;2023-05-14T04:11:59;12.60;99.90
7472;DHT22;3777;48.722;8.110;2023-05-14T04:14:26;12.70;99.90
7472;DHT22;3777;48.722;8.110;2023-05-14T04:16:52;12.60;99.90
7472;DHT22;3777;48.722;8.110;2023-05-14T04:19:19;12.70;99.90
7472;DHT22;3777;48.722;8.110;2023-05-14T04:21:46;12.70;99.90
7472;DHT22;3777;48.722;8.110;2023-05-14T04:24:13;12.70;99.90
7472;DHT22;3777;48.722;8.110;2023-05-14T04:26:42;12.80;99.90
7472;DHT22;3777;48.722;8.110;2023-05-14T04:29:08;12.80;99.90
7472;DHT22;3777;48.722;8.110;2023-05-14T04:31:35;12.80;99.90
7472;DHT22;3777;48.722;8.110;2023-05-14T04:34:02;12.90;99.90
7472;DHT22;3777;48.722;8.110;2023-05-14T04:36:29;12.90;99.90
7472;DHT22;3777;48.722;8.110;2023-05-14T04:38:56;13.00;99.90
7472;DHT22;3777;48.722;8.110;2023-05-14T04:41:23;13.00;99.90
7472;DHT22;3777;48.722;8.110;2023-05-14T04:43:55;13.10;99.90
7472;DHT22;3777;48.722;8.110;2023-05-14T04:46:22;13.10;99.90
7472;DHT22;3777;48.722;8.110;2023-05-14T04:48:49;13.20;99.90
7472;DHT22;3777;48.722;8.110;2023-05-14T04:51:16;13.20;99.90
7472;DHT22;3777;48.722;8.110;2023-05-14T04:53:43;13.30;99.90
7472;DHT22;3777;48.722;8.110;2023-05-14T04:56:10;13.40;99.90
7472;DHT22;3777;48.722;8.110;2023-05-14T04:58:37;13.40;99.90
7472;DHT22;3777;48.722;8.110;2023-05-14T05:01:05;13.40;99.90
7472;DHT22;3777;48.722;8.110;2023-05-14T05:03:32;13.50;99.90
7472;DHT22;3777;48.722;8.110;2023-05-14T05:06:02;13.50;99.90
7472;DHT22;3777;48.722;8.110;2023-05-14T05:08:29;13.50;99.90
7472;DHT22;3777;48.722;8.110;2023-05-14T05:10:56;13.60;99.90
7472;DHT22;3777;48.722;8.110;2023-05-14T05:13:23;13.60;99.90
7472;DHT22;3777;48.722;8.110;2023-05-14T05:15:50;13.70;99.90
7472;DHT22;3777;48.722;8.110;2023-05-14T05:18:19;13.70;99.90
7472;DHT22;3777;48.722;8.110;2023-05-14T05:20:45;13.80;99.90
7472;DHT22;3777;48.722;8.110;2023-05-14T05:23:12;13.90;99.90
7472;DHT22;3777;48.722;8.110;2023-05-14T05:25:39;14.00;99.90
7472;DHT22;3777;48.722;8.110;2023-05-14T05:28:06;14.00;99.90
7472;DHT22;3777;48.722;8.110;2023-05-14T05:30:33;14.10;99.90
7472;DHT22;3777;48.722;8.110;2023-05-14T05:33:00;14.10;99.90
7472;DHT22;3777;48.722;8.110;2023-05-14T05:35:29;14.20;99.90
7472;DHT22;3777;48.722;8.110;2023-05-14T05:37:56;14.30;99.90
7472;DHT22;3777;48.722;8.110;2023-05-14T05:40:23;14.30;99.90
7472;DHT22;3777;48.722;8.110;2023-05-14T05:42:50;14.30;99.90
7472;DHT22;3777;48.722;8.110;2023-05-14T05:45:17;14.40;99.90
7472;DHT22;3777;48.722;8.110;2023-05-14T05:47:44;14.40;99.90
7472;DHT22;3777;48.722;8.110;2023-05-14T05:50:11;14.50;99.90
7472;DHT22;3777;48.722;8.110;2023-05-14T05:52:40;14.50;99.90
7472;DHT22;3777;48.722;8.110;2023-05-14T05:55:08;14.50;99.90
7472;DHT22;3777;48.722;8.110;2023-05-14T05:57:35;14.50;99.90
7472;DHT22;3777;48.722;8.110;2023-05-14T06:00:03;14.50;99.90
7472;DHT22;3777;48.722;8.110;2023-05-14T06:02:37;14.60;99.90
7472;DHT22;3777;48.722;8.110;2023-05-14T06:05:05;14.60;99.90
7472;DHT22;3777;48.722;8.110;2023-05-14T06:07:33;14.70;99.90
7472;DHT22;3777;48.722;8.110;2023-05-14T06:10:01;14.80;99.90
7472;DHT22;3777;48.722;8.110;2023-05-14T06:12:28;15.00;99.90
7472;DHT22;3777;48.722;8.110;2023-05-14T06:14:55;15.10;99.90
7472;DHT22;3777;48.722;8.110;2023-05-14T06:17:23;16.00;99.90
7472;DHT22;3777;48.722;8.110;2023-05-14T06:19:50;16.90;99.90
7472;DHT22;3777;48.722;8.110;2023-05-14T06:22:17;17.80;99.90
7472;DHT22;3777;48.722;8.110;2023-05-14T06:24:44;18.50;99.90
7472;DHT22;3777;48.722;8.110;2023-05-14T06:27:12;19.00;99.90
7472;DHT22;3777;48.722;8.110;2023-05-14T06:29:39;20.90;99.90
7472;DHT22;3777;48.722;8.110;2023-05-14T06:32:07;22.90;99.90
7472;DHT22;3777;48.722;8.110;2023-05-14T06:34:34;24.20;99.90
7472;DHT22;3777;48.722;8.110;2023-05-14T06:37:01;25.30;99.90
7472;DHT22;3777;48.722;8.110;2023-05-14T06:39:28;25.90;99.90
7472;DHT22;3777;48.722;8.110;2023-05-14T06:41:55;26.10;99.90
7472;DHT22;3777;48.722;8.110;2023-05-14T06:44:25;26.40;99.90
7472;DHT22;3777;48.722;8.110;2023-05-14T06:46:52;26.90;99.90
7472;DHT22;3777;48.722;8.110;2023-05-14T06:49:19;26.90;99.90
7472;DHT22;3777;48.722;8.110;2023-05-14T06:51:46;26.70;99.00
7472;DHT22;3777;48.722;8.110;2023-05-14T06:54:12;26.10;99.90
7472;DHT22;3777;48.722;8.110;2023-05-14T06:56:39;26.00;99.10
7472;DHT22;3777;48.722;8.110;2023-05-14T06:59:06;25.40;99.00
7472;DHT22;3777;48.722;8.110;2023-05-14T07:01:35;24.90;99.80
7472;DHT22;3777;48.722;8.110;2023-05-14T07:04:02;24.40;99.40
7472;DHT22;3777;48.722;8.110;2023-05-14T07:06:29;23.80;99.90
7472;DHT22;3777;48.722;8.110;2023-05-14T07:08:57;23.10;99.90
7472;DHT22;3777;48.722;8.110;2023-05-14T07:11:24;22.80;99.90
7472;DHT22;3777;48.722;8.110;2023-05-14T07:13:51;22.80;99.90
7472;DHT22;3777;48.722;8.110;2023-05-14T07:16:18;22.70;99.90
7472;DHT22;3777;48.722;8.110;2023-05-14T07:18:46;22.60;99.90
7472;DHT22;3777;48.722;8.110;2023-05-14T07:21:13;22.60;99.90
7472;DHT22;3777;48.722;8.110;2023-05-14T07:23:40;22.50;99.90
7472;DHT22;3777;48.722;8.110;2023-05-14T07:26:07;22.50;99.90
7472;DHT22;3777;48.722;8.110;2023-05-14T07:28:34;22.30;99.90
7472;DHT22;3777;48.722;8.110;2023-05-14T07:31:02;21.90;99.90
7472;DHT22;3777;48.722;8.110;2023-05-14T07:33:29;21.70;99.90
7472;DHT22;3777;48.722;8.110;2023-05-14T07:35:57;21.50;99.90
7472;DHT22;3777;48.722;8.110;2023-05-14T07:38:24;21.50;99.90
7472;DHT22;3777;48.722;8.110;2023-05-14T07:40:51;21.60;99.90
7472;DHT22;3777;48.722;8.110;2023-05-14T07:43:18;21.50;99.90
7472;DHT22;3777;48.722;8.110;2023-05-14T07:45:45;21.80;99.90
7472;DHT22;3777;48.722;8.110;2023-05-14T07:48:12;22.10;99.90
7472;DHT22;3777;48.722;8.110;2023-05-14T07:50:39;22.40;99.90
7472;DHT22;3777;48.722;8.110;2023-05-14T07:53:08;22.50;99.90
7472;DHT22;3777;48.722;8.110;2023-05-14T07:55:35;22.60;99.90
7472;DHT22;3777;48.722;8.110;2023-05-14T07:58:02;22.90;99.90
7472;DHT22;3777;48.722;8.110;2023-05-14T08:00:29;23.00;99.90
7472;DHT22;3777;48.722;8.110;2023-05-14T08:02:56;23.20;99.90
7472;DHT22;3777;48.722;8.110;2023-05-14T08:05:23;23.40;99.90
7472;DHT22;3777;48.722;8.110;2023-05-14T08:07:51;23.60;99.90
7472;DHT22;3777;48.722;8.110;2023-05-14T08:10:19;23.40;99.90
7472;DHT22;3777;48.722;8.110;2023-05-14T08:12:46;23.10;99.90
7472;DHT22;3777;48.722;8.110;2023-05-14T08:15:13;23.10;99.90
7472;DHT22;3777;48.722;8.110;2023-05-14T08:17:40;23.20;99.90
7472;DHT22;3777;48.722;8.110;2023-05-14T08:20:08;23.40;99.90
7472;DHT22;3777;48.722;8.110;2023-05-14T08:22:36;23.50;99.90
7472;DHT22;3777;48.722;8.110;2023-05-14T08:25:04;23.70;99.90
7472;DHT22;3777;48.722;8.110;2023-05-14T08:27:33;24.00;99.90
7472;DHT22;3777;48.722;8.110;2023-05-14T08:30:00;24.30;99.70
7472;DHT22;3777;48.722;8.110;2023-05-14T08:32:28;24.70;98.90
7472;DHT22;3777;48.722;8.110;2023-05-14T08:34:55;25.10;98.80
7472;DHT22;3777;48.722;8.110;2023-05-14T08:37:22;26.00;98.00
7472;DHT22;3777;48.722;8.110;2023-05-14T08:39:49;27.00;98.00
7472;DHT22;3777;48.722;8.110;2023-05-14T08:42:19;27.90;93.60
7472;DHT22;3777;48.722;8.110;2023-05-14T08:44:50;28.40;91.60
7472;DHT22;3777;48.722;8.110;2023-05-14T08:47:21;28.30;88.60
7472;DHT22;3777;48.722;8.110;2023-05-14T08:49:54;29.10;84.20
7472;DHT22;3777;48.722;8.110;2023-05-14T08:52:23;29.10;82.20
7472;DHT22;3777;48.722;8.110;2023-05-14T08:54:52;30.00;81.30
7472;DHT22;3777;48.722;8.110;2023-05-14T08:57:20;31.10;76.30
7472;DHT22;3777;48.722;8.110;2023-05-14T08:59:50;32.20;71.30
7472;DHT22;3777;48.722;8.110;2023-05-14T09:02:19;33.00;61.80
7472;DHT22;3777;48.722;8.110;2023-05-14T09:04:49;33.70;57.00
7472;DHT22;3777;48.722;8.110;2023-05-14T09:07:17;34.20;55.60
7472;DHT22;3777;48.722;8.110;2023-05-14T09:09:44;35.30;52.40
7472;DHT22;3777;48.722;8.110;2023-05-14T09:12:11;35.70;48.20
7472;DHT22;3777;48.722;8.110;2023-05-14T09:14:38;35.20;48.50
7472;DHT22;3777;48.722;8.110;2023-05-14T09:17:07;34.60;47.50
7472;DHT22;3777;48.722;8.110;2023-05-14T09:19:37;34.60;47.30
7472;DHT22;3777;48.722;8.110;2023-05-14T09:22:07;35.00;46.60
7472;DHT22;3777;48.722;8.110;2023-05-14T09:24:35;34.60;45.20
7472;DHT22;3777;48.722;8.110;2023-05-14T09:27:04;33.80;45.60
7472;DHT22;3777;48.722;8.110;2023-05-14T09:29:31;33.40;45.60
7472;DHT22;3777;48.722;8.110;2023-05-14T09:31:59;32.40;46.50
7472;DHT22;3777;48.722;8.110;2023-05-14T09:34:32;31.70;45.70
7472;DHT22;3777;48.722;8.110;2023-05-14T09:37:03;31.10;46.70
7472;DHT22;3777;48.722;8.110;2023-05-14T09:39:31;30.10;47.90
7472;DHT22;3777;48.722;8.110;2023-05-14T09:41:59;29.60;48.80
7472;DHT22;3777;48.722;8.110;2023-05-14T09:44:26;30.40;49.60
7472;DHT22;3777;48.722;8.110;2023-05-14T09:46:53;31.60;47.40
7472;DHT22;3777;48.722;8.110;2023-05-14T09:49:21;32.50;46.30
7472;DHT22;3777;48.722;8.110;2023-05-14T09:51:50;32.60;43.70
7472;DHT22;3777;48.722;8.110;2023-05-14T09:54:17;33.70;43.40
7472;DHT22;3777;48.722;8.110;2023-05-14T09:56:44;33.80;42.20
7472;DHT22;3777;48.722;8.110;2023-05-14T09:59:11;33.10;43.00
7472;DHT22;3777;48.722;8.110;2023-05-14T10:01:38;33.20;45.10
7472;DHT22;3777;48.722;8.110;2023-05-14T10:04:08;34.30;43.50
7472;DHT22;3777;48.722;8.110;2023-05-14T10:06:38;35.20;41.50
7472;DHT22;3777;48.722;8.110;2023-05-14T10:09:11;35.90;40.40
7472;DHT22;3777;48.722;8.110;2023-05-14T10:11:42;36.00;39.50
7472;DHT22;3777;48.722;8.110;2023-05-14T10:14:13;35.30;38.20
7472;DHT22;3777;48.722;8.110;2023-05-14T10:16:46;34.20;38.60
7472;DHT22;3777;48.722;8.110;2023-05-14T10:19:15;32.50;39.10
7472;DHT22;3777;48.722;8.110;2023-05-14T10:21:44;31.50;40.60
7472;DHT22;3777;48.722;8.110;2023-05-14T10:24:15;31.40;42.50
7472;DHT22;3777;48.722;8.110;2023-05-14T10:26:43;31.40;41.30
7472;DHT22;3777;48.722;8.110;2023-05-14T10:29:10;31.30;40.80
7472;DHT22;3777;48.722;8.110;2023-05-14T10:31:46;31.00;41.60
7472;DHT22;3777;48.722;8.110;2023-05-14T10:34:33;31.70;41.50
7472;DHT22;3777;48.722;8.110;2023-05-14T10:37:03;32.80;40.50
7472;DHT22;3777;48.722;8.110;2023-05-14T10:39:44;33.60;41.80
7472;DHT22;3777;48.722;8.110;2023-05-14T10:42:12;34.70;42.90
7472;DHT22;3777;48.722;8.110;2023-05-14T10:44:46;35.30;39.90
7472;DHT22;3777;48.722;8.110;2023-05-14T10:47:13;35.60;38.60
7472;DHT22;3777;48.722;8.110;2023-05-14T10:49:42;36.10;38.60
7472;DHT22;3777;48.722;8.110;2023-05-14T10:52:11;36.30;38.30
7472;DHT22;3777;48.722;8.110;2023-05-14T10:54:39;36.30;40.10
7472;DHT22;3777;48.722;8.110;2023-05-14T10:57:10;36.20;36.80
7472;DHT22;3777;48.722;8.110;2023-05-14T10:59:41;35.60;36.70
7472;DHT22;3777;48.722;8.110;2023-05-14T11:02:18;34.00;38.40
7472;DHT22;3777;48.722;8.110;2023-05-14T11:04:51;32.10;40.00
7472;DHT22;3777;48.722;8.110;2023-05-14T11:07:23;30.50;42.20
7472;DHT22;3777;48.722;8.110;2023-05-14T11:09:52;29.30;45.20
7472;DHT22;3777;48.722;8.110;2023-05-14T11:12:20;28.30;46.90
7472;DHT22;3777;48.722;8.110;2023-05-14T11:14:47;27.70;48.50
7472;DHT22;3777;48.722;8.110;2023-05-14T11:17:14;27.10;48.70
7472;DHT22;3777;48.722;8.110;2023-05-14T11:19:42;26.60;49.80
7472;DHT22;3777;48.722;8.110;2023-05-14T11:22:10;26.40;50.20
7472;DHT22;3777;48.722;8.110;2023-05-14T11:24:39;26.20;51.00
7472;DHT22;3777;48.722;8.110;2023-05-14T11:27:08;26.00;51.00
7472;DHT22;3777;48.722;8.110;2023-05-14T11:29:35;25.70;51.70
7472;DHT22;3777;48.722;8.110;2023-05-14T11:32:04;25.20;52.40
7472;DHT22;3777;48.722;8.110;2023-05-14T11:34:31;24.80;52.60
7472;DHT22;3777;48.722;8.110;2023-05-14T11:37:02;24.30;52.60
7472;DHT22;3777;48.722;8.110;2023-05-14T11:39:30;23.90;54.40
7472;DHT22;3777;48.722;8.110;2023-05-14T11:41:57;23.70;56.60
7472;DHT22;3777;48.722;8.110;2023-05-14T11:44:26;23.70;57.50
7472;DHT22;3777;48.722;8.110;2023-05-14T11:46:54;23.80;57.20
7472;DHT22;3777;48.722;8.110;2023-05-14T11:49:21;24.20;56.60
7472;DHT22;3777;48.722;8.110;2023-05-14T11:51:48;24.40;58.80
7472;DHT22;3777;48.722;8.110;2023-05-14T11:54:15;24.50;55.10
7472;DHT22;3777;48.722;8.110;2023-05-14T11:56:42;24.70;54.80
7472;DHT22;3777;48.722;8.110;2023-05-14T11:59:16;24.60;54.50
7472;DHT22;3777;48.722;8.110;2023-05-14T12:01:45;24.40;53.80
7472;DHT22;3777;48.722;8.110;2023-05-14T12:04:12;24.30;55.70
7472;DHT22;3777;48.722;8.110;2023-05-14T12:06:39;24.00;55.90
7472;DHT22;3777;48.722;8.110;2023-05-14T12:09:06;24.00;56.50
7472;DHT22;3777;48.722;8.110;2023-05-14T12:11:35;23.90;57.70
7472;DHT22;3777;48.722;8.110;2023-05-14T12:14:09;24.10;57.40
7472;DHT22;3777;48.722;8.110;2023-05-14T12:16:39;24.10;56.80
7472;DHT22;3777;48.722;8.110;2023-05-14T12:19:09;23.70;56.90
7472;DHT22;3777;48.722;8.110;2023-05-14T12:21:37;23.60;57.10
7472;DHT22;3777;48.722;8.110;2023-05-14T12:24:08;23.30;56.90
7472;DHT22;3777;48.722;8.110;2023-05-14T12:26:35;23.20;57.90
7472;DHT22;3777;48.722;8.110;2023-05-14T12:29:04;23.20;60.30
7472;DHT22;3777;48.722;8.110;2023-05-14T12:31:32;23.30;59.70
7472;DHT22;3777;48.722;8.110;2023-05-14T12:34:01;23.30;59.30
7472;DHT22;3777;48.722;8.110;2023-05-14T12:36:30;23.10;58.80
7472;DHT22;3777;48.722;8.110;2023-05-14T12:38:58;22.80;59.90
7472;DHT22;3777;48.722;8.110;2023-05-14T12:41:27;22.80;59.80
7472;DHT22;3777;48.722;8.110;2023-05-14T12:43:53;22.90;61.00
7472;DHT22;3777;48.722;8.110;2023-05-14T12:46:21;23.10;59.70
7472;DHT22;3777;48.722;8.110;2023-05-14T12:48:48;23.20;62.00
7472;DHT22;3777;48.722;8.110;2023-05-14T12:51:15;23.00;62.30
7472;DHT22;3777;48.722;8.110;2023-05-14T12:53:43;22.70;60.80
7472;DHT22;3777;48.722;8.110;2023-05-14T12:56:11;22.50;61.70
7472;DHT22;3777;48.722;8.110;2023-05-14T12:58:37;22.40;61.50
7472;DHT22;3777;48.722;8.110;2023-05-14T13:01:05;22.30;62.80
7472;DHT22;3777;48.722;8.110;2023-05-14T13:03:32;22.20;64.90
7472;DHT22;3777;48.722;8.110;2023-05-14T13:05:59;22.20;66.40
7472;DHT22;3777;48.722;8.110;2023-05-14T13:08:26;22.10;62.60
7472;DHT22;3777;48.722;8.110;2023-05-14T13:10:54;22.10;63.00
7472;DHT22;3777;48.722;8.110;2023-05-14T13:13:22;22.10;63.90
7472;DHT22;3777;48.722;8.110;2023-05-14T13:15:50;22.10;65.60
7472;DHT22;3777;48.722;8.110;2023-05-14T13:18:18;22.10;66.60
7472;DHT22;3777;48.722;8.110;2023-05-14T13:20:45;22.10;66.00
7472;DHT22;3777;48.722;8.110;2023-05-14T13:23:13;21.80;65.60
7472;DHT22;3777;48.722;8.110;2023-05-14T13:25:40;21.60;66.00
7472;DHT22;3777;48.722;8.110;2023-05-14T13:28:08;21.40;66.00
7472;DHT22;3777;48.722;8.110;2023-05-14T13:30:35;21.10;66.20
7472;DHT22;3777;48.722;8.110;2023-05-14T13:33:03;21.00;67.60
7472;DHT22;3777;48.722;8.110;2023-05-14T13:35:30;21.00;66.10
7472;DHT22;3777;48.722;8.110;2023-05-14T13:37:56;21.00;68.90
7472;DHT22;3777;48.722;8.110;2023-05-14T13:40:23;21.10;69.30
7472;DHT22;3777;48.722;8.110;2023-05-14T13:42:50;21.10;69.70
7472;DHT22;3777;48.722;8.110;2023-05-14T13:45:19;21.20;71.60
7472;DHT22;3777;48.722;8.110;2023-05-14T13:47:46;21.30;70.50
7472;DHT22;3777;48.722;8.110;2023-05-14T13:50:13;21.30;70.50
7472;DHT22;3777;48.722;8.110;2023-05-14T13:52:39;21.20;73.00
7472;DHT22;3777;48.722;8.110;2023-05-14T13:55:07;21.20;71.10
7472;DHT22;3777;48.722;8.110;2023-05-14T13:57:34;21.20;72.50
7472;DHT22;3777;48.722;8.110;2023-05-14T14:00:01;21.20;73.20
7472;DHT22;3777;48.722;8.110;2023-05-14T14:02:30;21.20;72.10
7472;DHT22;3777;48.722;8.110;2023-05-14T14:04:57;21.00;70.10
7472;DHT22;3777;48.722;8.110;2023-05-14T14:07:24;21.00;75.30
7472;DHT22;3777;48.722;8.110;2023-05-14T14:09:51;21.00;76.10
7472;DHT22;3777;48.722;8.110;2023-05-14T14:12:18;21.10;76.60
7472;DHT22;3777;48.722;8.110;2023-05-14T14:14:45;21.10;77.50
7472;DHT22;3777;48.722;8.110;2023-05-14T14:17:12;21.00;77.50
7472;DHT22;3777;48.722;8.110;2023-05-14T14:19:40;21.10;77.50
7472;DHT22;3777;48.722;8.110;2023-05-14T14:22:07;21.00;76.70
7472;DHT22;3777;48.722;8.110;2023-05-14T14:24:34;20.90;73.20
7472;DHT22;3777;48.722;8.110;2023-05-14T14:27:01;21.00;73.50
7472;DHT22;3777;48.722;8.110;2023-05-14T14:29:28;21.00;74.40
7472;DHT22;3777;48.722;8.110;2023-05-14T14:31:55;20.90;75.00
7472;DHT22;3777;48.722;8.110;2023-05-14T14:34:22;20.90;75.80
7472;DHT22;3777;48.722;8.110;2023-05-14T14:36:51;20.90;75.60
7472;DHT22;3777;48.722;8.110;2023-05-14T14:39:18;20.90;75.90
7472;DHT22;3777;48.722;8.110;2023-05-14T14:41:45;21.10;74.50
7472;DHT22;3777;48.722;8.110;2023-05-14T14:44:12;21.30;75.80
7472;DHT22;3777;48.722;8.110;2023-05-14T14:46:39;21.40;72.00
7472;DHT22;3777;48.722;8.110;2023-05-14T14:49:08;21.20;73.10
7472;DHT22;3777;48.722;8.110;2023-05-14T14:51:35;21.20;73.80
7472;DHT22;3777;48.722;8.110;2023-05-14T14:54:03;21.10;74.10
7472;DHT22;3777;48.722;8.110;2023-05-14T14:56:30;21.00;73.60
7472;DHT22;3777;48.722;8.110;2023-05-14T14:58:57;20.90;73.40
7472;DHT22;3777;48.722;8.110;2023-05-14T15:01:24;20.90;74.30
7472;DHT22;3777;48.722;8.110;2023-05-14T15:03:51;20.90;74.00
7472;DHT22;3777;48.722;8.110;2023-05-14T15:06:18;20.80;75.10
7472;DHT22;3777;48.722;8.110;2023-05-14T15:08:45;20.80;75.60
7472;DHT22;3777;48.722;8.110;2023-05-14T15:11:14;20.90;78.10
7472;DHT22;3777;48.722;8.110;2023-05-14T15:13:41;21.00;77.00
7472;DHT22;3777;48.722;8.110;2023-05-14T15:16:08;21.00;80.50
7472;DHT22;3777;48.722;8.110;2023-05-14T15:18:35;21.20;77.40
7472;DHT22;3777;48.722;8.110;2023-05-14T15:21:02;21.30;78.10
7472;DHT22;3777;48.722;8.110;2023-05-14T15:23:30;21.30;75.80
7472;DHT22;3777;48.722;8.110;2023-05-14T15:25:57;21.30;76.80
7472;DHT22;3777;48.722;8.110;2023-05-14T15:28:25;21.30;74.10
7472;DHT22;3777;48.722;8.110;2023-05-14T15:30:52;21.20;72.50
7472;DHT22;3777;48.722;8.110;2023-05-14T15:33:19;21.30;74.20
7472;DHT22;3777;48.722;8.110;2023-05-14T15:35:46;21.30;74.40
7472;DHT22;3777;48.722;8.110;2023-05-14T15:38:13;21.20;73.40
7472;DHT22;3777;48.722;8.110;2023-05-14T15:40:40;21.10;71.90
7472;DHT22;3777;48.722;8.110;2023-05-14T15:43:07;21.10;74.60
7472;DHT22;3777;48.722;8.110;2023-05-14T15:45:35;21.10;75.90
7472;DHT22;3777;48.722;8.110;2023-05-14T15:48:02;21.10;74.70
7472;DHT22;3777;48.722;8.110;2023-05-14T15:50:29;21.00;78.20
7472;DHT22;3777;48.722;8.110;2023-05-14T15:52:56;21.10;77.30
7472;DHT22;3777;48.722;8.110;2023-05-14T15:55:23;21.10;79.40
7472;DHT22;3777;48.722;8.110;2023-05-14T15:57:50;21.10;77.70
7472;DHT22;3777;48.722;8.110;2023-05-14T16:00:17;21.10;78.60
7472;DHT22;3777;48.722;8.110;2023-05-14T16:02:46;21.00;74.70
7472;DHT22;3777;48.722;8.110;2023-05-14T16:05:13;21.00;75.20
7472;DHT22;3777;48.722;8.110;2023-05-14T16:07:40;20.90;75.10